sensor_id;sensor_type;location;lat;lon;timestamp;pressure;altitude;pressure_sealevel;temperature;humidity
3960;BME280;1994;48.640;8.894;2023-06-01T00:02:06;96299.75;;;15.41;55.84
3960;BME280;1994;48.640;8.894;2023-06-01T00:04:32;96301.31;;;15.47;55.42
3960;BME280;1994;48.640;8.894;2023-06-01T00:06:58;96298.44;;;15.44;55.23
3960;BME280;1994;48.640;8.894;2023-06-01T00:09:27;96294.25;;;15.33;55.29
3960;BME280;1994;48.640;8.894;2023-06-01T00:11:53;96294.00;;;15.34;55.67
3960;BME280;1994;48.640;8.894;2023-06-01T00:14:18;96298.38;;;15.29;55.69
3960;BME280;1994;48.640;8.894;2023-06-01T00:16:44;96294.78;;;15.45;55.31
3960;BME280;1994;48.640;8.894;2023-06-01T00:19:11;96292.69;;;15.37;55.27
3960;BME280;1994;48.640;8.894;2023-06-01T00:21:36;96298.91;;;15.21;55.87
3960;BME280;1994;48.640;8.894;2023-06-01T00:24:03;96297.81;;;15.07;56.07
3960;BME280;1994;48.640;8.894;2023-06-01T00:26:29;96295.72;;;14.99;56.43
3960;BME280;1994;48.640;8.894;2023-06-01T00:28:59;96300.97;;;15.09;56.30
3960;BME280;1994;48.640;8.894;2023-06-01T00:31:25;96295.72;;;14.99;56.54
3960;BME280;1994;48.640;8.894;2023-06-01T00:33:51;96292.56;;;15.02;56.38
3960;BME280;1994;48.640;8.894;2023-06-01T00:36:18;96289.47;;;15.05;56.29
3960;BME280;1994;48.640;8.894;2023-06-01T00:38:44;96298.84;;;15.01;56.07
3960;BME280;1994;48.640;8.894;2023-06-01T00:41:10;96292.34;;;15.13;55.99
3960;BME280;1994;48.640;8.894;2023-06-01T00:43:36;96292.00;;;14.90;56.63
3960;BME280;1994;48.640;8.894;2023-06-01T00:46:02;96292.06;;;15.00;56.80
3960;BME280;1994;48.640;8.894;2023-06-01T00:48:28;96288.66;;;14.99;56.57
3960;BME280;1994;48.640;8.894;2023-06-01T00:50:55;96288.13;;;14.97;56.53
3960;BME280;1994;48.640;8.894;2023-06-01T00:53:23;96286.47;;;14.76;57.63
3960;BME280;1994;48.640;8.894;2023-06-01T00:55:50;96286.69;;;14.65;58.18
3960;BME280;1994;48.640;8.894;2023-06-01T00:58:16;96286.69;;;14.60;58.33
3960;BME280;1994;48.640;8.894;2023-06-01T01:00:42;96282.06;;;14.77;57.54
3960;BME280;1994;48.640;8.894;2023-06-01T01:03:08;96284.91;;;14.75;57.32
3960;BME280;1994;48.640;8.894;2023-06-01T01:05:38;96295.34;;;14.75;57.01
3960;BME280;1994;48.640;8.894;2023-06-01T01:08:35;96280.47;;;14.66;57.44
3960;BME280;1994;48.640;8.894;2023-06-01T01:11:19;96276.81;;;14.67;57.93
3960;BME280;1994;48.640;8.894;2023-06-01T01:14:23;96284.09;;;14.70;57.23
3960;BME280;1994;48.640;8.894;2023-06-01T01:17:27;96282.03;;;14.67;57.44
3960;BME280;1994;48.640;8.894;2023-06-01T01:20:11;96285.22;;;14.84;57.07
3960;BME280;1994;48.640;8.894;2023-06-01T01:29:09;96286.75;;;14.80;57.51
3960;BME280;1994;48.640;8.894;2023-06-01T01:31:38;96281.97;;;14.57;58.38
3960;BME280;1994;48.640;8.894;2023-06-01T01:34:07;96287.69;;;14.54;58.14
3960;BME280;1994;48.640;8.894;2023-06-01T01:36:34;96279.66;;;14.65;57.81
3960;BME280;1994;48.640;8.894;2023-06-01T01:39:02;96279.94;;;14.69;57.24
3960;BME280;1994;48.640;8.894;2023-06-01T01:41:28;96286.69;;;14.60;57.46
3960;BME280;1994;48.640;8.894;2023-06-01T01:43:54;96277.34;;;14.74;57.41
3960;BME280;1994;48.640;8.894;2023-06-01T01:46:32;96279.47;;;14.82;57.20
3960;BME280;1994;48.640;8.894;2023-06-01T01:49:43;96271.69;;;14.87;56.98
3960;BME280;1994;48.640;8.894;2023-06-01T01:52:25;96275.81;;;14.83;56.77
3960;BME280;1994;48.640;8.894;2023-06-01T01:54:52;96277.63;;;14.77;57.04
3960;BME280;1994;48.640;8.894;2023-06-01T01:57:19;96276.31;;;14.80;57.10
3960;BME280;1994;48.640;8.894;2023-06-01T01:59:49;96275.78;;;14.73;56.57
3960;BME280;1994;48.640;8.894;2023-06-01T02:02:15;96268.22;;;14.71;56.77
3960;BME280;1994;48.640;8.894;2023-06-01T02:04:42;96276.81;;;14.67;57.00
3960;BME280;1994;48.640;8.894;2023-06-01T02:07:09;96268.41;;;14.55;57.83
3960;BME280;1994;48.640;8.894;2023-06-01T02:09:36;96264.75;;;14.51;57.39
3960;BME280;1994;48.640;8.894;2023-06-01T02:12:01;96261.13;;;14.57;57.48
3960;BME280;1994;48.640;8.894;2023-06-01T02:14:28;96261.59;;;14.54;57.77
3960;BME280;1994;48.640;8.894;2023-06-01T02:16:54;96261.53;;;14.34;58.28
3960;BME280;1994;48.640;8.894;2023-06-01T02:19:20;96253.97;;;14.32;58.61
3960;BME280;1994;48.640;8.894;2023-06-01T02:21:46;96263.09;;;14.35;58.48
3960;BME280;1994;48.640;8.894;2023-06-01T02:24:12;96260.00;;;14.43;58.37
3960;BME280;1994;48.640;8.894;2023-06-01T02:26:38;96260.03;;;14.48;58.41
3960;BME280;1994;48.640;8.894;2023-06-01T02:29:04;96260.78;;;14.43;58.84
3960;BME280;1994;48.640;8.894;2023-06-01T02:31:36;96259.50;;;14.46;58.74
3960;BME280;1994;48.640;8.894;2023-06-01T02:34:02;96252.19;;;14.48;58.70
3960;BME280;1994;48.640;8.894;2023-06-01T02:36:28;96257.97;;;14.50;58.03
3960;BME280;1994;48.640;8.894;2023-06-01T02:38:55;96260.00;;;14.43;58.09
3960;BME280;1994;48.640;8.894;2023-06-01T02:41:21;96258.38;;;14.32;58.85
3960;BME280;1994;48.640;8.894;2023-06-01T02:43:47;96249.50;;;14.23;58.61
3960;BME280;1994;48.640;8.894;2023-06-01T02:46:16;96248.53;;;14.02;59.37
3960;BME280;1994;48.640;8.894;2023-06-01T02:48:43;96249.03;;;13.94;59.71
3960;BME280;1994;48.640;8.894;2023-06-01T02:51:09;96249.25;;;13.93;60.02
3960;BME280;1994;48.640;8.894;2023-06-01T02:53:35;96247.66;;;13.87;60.11
3960;BME280;1994;48.640;8.894;2023-06-01T02:56:00;96245.41;;;13.64;60.89
3960;BME280;1994;48.640;8.894;2023-06-01T02:58:26;96250.63;;;13.64;61.17
3960;BME280;1994;48.640;8.894;2023-06-01T03:00:55;96246.50;;;13.68;61.35
3960;BME280;1994;48.640;8.894;2023-06-01T03:03:24;96250.22;;;13.82;60.72
3960;BME280;1994;48.640;8.894;2023-06-01T03:05:51;96248.75;;;13.91;60.81
3960;BME280;1994;48.640;8.894;2023-06-01T03:08:17;96255.28;;;13.93;60.15
3960;BME280;1994;48.640;8.894;2023-06-01T03:10:43;96253.44;;;13.89;60.55
3960;BME280;1994;48.640;8.894;2023-06-01T03:13:09;96261.66;;;13.76;61.08
3960;BME280;1994;48.640;8.894;2023-06-01T03:15:35;96256.19;;;13.77;60.91
3960;BME280;1994;48.640;8.894;2023-06-01T03:18:03;96254.91;;;13.80;60.79
3960;BME280;1994;48.640;8.894;2023-06-01T03:20:29;96249.63;;;13.70;60.92
3960;BME280;1994;48.640;8.894;2023-06-01T03:22:55;96250.25;;;13.50;61.61
3960;BME280;1994;48.640;8.894;2023-06-01T03:25:21;96252.09;;;13.55;61.17
3960;BME280;1994;48.640;8.894;2023-06-01T03:27:47;96252.69;;;13.62;61.36
3960;BME280;1994;48.640;8.894;2023-06-01T03:30:12;96254.75;;;13.60;61.55
3960;BME280;1994;48.640;8.894;2023-06-01T03:32:43;96257.91;;;13.62;61.27
3960;BME280;1994;48.640;8.894;2023-06-01T03:35:10;96257.31;;;13.55;61.41
3960;BME280;1994;48.640;8.894;2023-06-01T03:37:39;96257.91;;;13.62;61.41
3960;BME280;1994;48.640;8.894;2023-06-01T03:40:06;96260.84;;;13.70;61.32
3960;BME280;1994;48.640;8.894;2023-06-01T03:42:37;96260.13;;;13.80;61.15
3960;BME280;1994;48.640;8.894;2023-06-01T03:45:04;96269.41;;;13.71;61.42
3960;BME280;1994;48.640;8.894;2023-06-01T03:47:31;96274.44;;;13.46;61.95
3960;BME280;1994;48.640;8.894;2023-06-01T03:49:57;96270.06;;;13.25;63.23
3960;BME280;1994;48.640;8.894;2023-06-01T03:52:25;96273.66;;;13.19;63.46
3960;BME280;1994;48.640;8.894;2023-06-01T03:54:51;96276.19;;;13.14;63.90
3960;BME280;1994;48.640;8.894;2023-06-01T03:57:17;96279.72;;;13.03;64.67
3960;BME280;1994;48.640;8.894;2023-06-01T03:59:43;96274.66;;;13.18;64.29
3960;BME280;1994;48.640;8.894;2023-06-01T04:02:08;96283.75;;;13.42;63.28
3960;BME280;1994;48.640;8.894;2023-06-01T04:04:35;96275.47;;;13.50;63.45
3960;BME280;1994;48.640;8.894;2023-06-01T04:07:02;96284.41;;;13.59;63.20
3960;BME280;1994;48.640;8.894;2023-06-01T04:09:29;96277.22;;;13.71;62.75
3960;BME280;1994;48.640;8.894;2023-06-01T04:11:56;96269.38;;;13.66;62.45
3960;BME280;1994;48.640;8.894;2023-06-01T04:14:21;96279.69;;;13.56;63.04
3960;BME280;1994;48.640;8.894;2023-06-01T04:16:47;96286.97;;;13.54;63.30
3960;BME280;1994;48.640;8.894;2023-06-01T04:19:13;96282.34;;;13.61;62.83
3960;BME280;1994;48.640;8.894;2023-06-01T04:21:39;96274.13;;;13.74;62.15
3960;BME280;1994;48.640;8.894;2023-06-01T04:24:05;96276.84;;;13.89;62.21
3960;BME280;1994;48.640;8.894;2023-06-01T04:26:31;96286.31;;;14.05;61.79
3960;BME280;1994;48.640;8.894;2023-06-01T04:28:58;96288.94;;;14.05;61.52
3960;BME280;1994;48.640;8.894;2023-06-01T04:31:24;96287.16;;;14.10;61.96
3960;BME280;1994;48.640;8.894;2023-06-01T04:33:50;96293.13;;;14.06;62.15
3960;BME280;1994;48.640;8.894;2023-06-01T04:36:20;96287.91;;;14.06;61.71
3960;BME280;1994;48.640;8.894;2023-06-01T04:38:48;96290.97;;;13.98;61.36
3960;BME280;1994;48.640;8.894;2023-06-01T04:41:23;96284.19;;;13.97;61.66
3960;BME280;1994;48.640;8.894;2023-06-01T04:43:51;96292.13;;;14.12;61.58
3960;BME280;1994;48.640;8.894;2023-06-01T04:46:22;96293.50;;;14.19;62.03
3960;BME280;1994;48.640;8.894;2023-06-01T04:48:49;96292.75;;;14.24;61.31
3960;BME280;1994;48.640;8.894;2023-06-01T04:51:18;96287.56;;;14.29;61.77
3960;BME280;1994;48.640;8.894;2023-06-01T04:53:49;96292.28;;;14.37;61.10
3960;BME280;1994;48.640;8.894;2023-06-01T04:56:21;96288.69;;;14.48;60.51
3960;BME280;1994;48.640;8.894;2023-06-01T04:58:51;96296.03;;;14.56;60.25
3960;BME280;1994;48.640;8.894;2023-06-01T05:01:17;96298.16;;;14.64;60.18
3960;BME280;1994;48.640;8.894;2023-06-01T05:03:44;96299.78;;;14.75;60.27
3960;BME280;1994;48.640;8.894;2023-06-01T05:06:13;96302.41;;;14.85;60.35
3960;BME280;1994;48.640;8.894;2023-06-01T05:08:40;96299.31;;;14.88;60.32
3960;BME280;1994;48.640;8.894;2023-06-01T05:11:07;96300.91;;;14.99;60.34
3960;BME280;1994;48.640;8.894;2023-06-01T05:13:40;96300.97;;;15.09;59.85
3960;BME280;1994;48.640;8.894;2023-06-01T05:16:08;96312.44;;;15.18;59.54
3960;BME280;1994;48.640;8.894;2023-06-01T05:18:34;96303.59;;;15.24;59.87
3960;BME280;1994;48.640;8.894;2023-06-01T05:21:02;96295.25;;;15.32;60.00
3960;BME280;1994;48.640;8.894;2023-06-01T05:23:28;96300.00;;;15.45;59.59
3960;BME280;1994;48.640;8.894;2023-06-01T05:25:55;96295.31;;;15.52;59.41
3960;BME280;1994;48.640;8.894;2023-06-01T05:28:31;96297.94;;;15.57;59.08
3960;BME280;1994;48.640;8.894;2023-06-01T05:30:57;96296.88;;;15.68;59.07
3960;BME280;1994;48.640;8.894;2023-06-01T05:33:23;96294.28;;;15.83;58.76
3960;BME280;1994;48.640;8.894;2023-06-01T05:35:49;96299.00;;;15.91;57.55
3960;BME280;1994;48.640;8.894;2023-06-01T05:38:14;96293.25;;;15.94;57.42
3960;BME280;1994;48.640;8.894;2023-06-01T05:40:40;96293.50;;;16.02;57.33
3960;BME280;1994;48.640;8.894;2023-06-01T05:43:06;96292.97;;;16.10;57.30
3960;BME280;1994;48.640;8.894;2023-06-01T05:45:33;96292.97;;;16.20;57.13
3960;BME280;1994;48.640;8.894;2023-06-01T05:47:59;96296.84;;;16.23;56.43
3960;BME280;1994;48.640;8.894;2023-06-01T05:50:25;96293.19;;;16.34;55.98
3960;BME280;1994;48.640;8.894;2023-06-01T05:52:51;96293.44;;;16.47;56.28
3960;BME280;1994;48.640;8.894;2023-06-01T05:55:17;96295.25;;;16.62;57.05
3960;BME280;1994;48.640;8.894;2023-06-01T05:57:43;96303.03;;;16.77;56.66
3960;BME280;1994;48.640;8.894;2023-06-01T06:00:09;96307.69;;;16.90;56.75
3960;BME280;1994;48.640;8.894;2023-06-01T06:02:36;96308.69;;;17.04;56.09
3960;BME280;1994;48.640;8.894;2023-06-01T06:05:02;96307.56;;;17.20;57.17
3960;BME280;1994;48.640;8.894;2023-06-01T06:07:29;96305.91;;;17.34;56.76
3960;BME280;1994;48.640;8.894;2023-06-01T06:09:55;96313.19;;;17.47;58.58
3960;BME280;1994;48.640;8.894;2023-06-01T06:12:21;96312.59;;;17.60;58.28
3960;BME280;1994;48.640;8.894;2023-06-01T06:14:47;96308.91;;;17.61;57.75
3960;BME280;1994;48.640;8.894;2023-06-01T06:17:14;96302.53;;;17.77;57.05
3960;BME280;1994;48.640;8.894;2023-06-01T06:19:40;96304.00;;;17.88;56.63
3960;BME280;1994;48.640;8.894;2023-06-01T06:22:09;96312.59;;;17.93;56.72
3960;BME280;1994;48.640;8.894;2023-06-01T06:24:35;96299.59;;;18.12;56.04
3960;BME280;1994;48.640;8.894;2023-06-01T06:27:01;96317.06;;;17.93;55.26
3960;BME280;1994;48.640;8.894;2023-06-01T06:29:27;96310.91;;;18.07;54.50
3960;BME280;1994;48.640;8.894;2023-06-01T06:31:53;96308.41;;;18.26;54.72
3960;BME280;1994;48.640;8.894;2023-06-01T06:34:19;96302.47;;;18.44;51.13
3960;BME280;1994;48.640;8.894;2023-06-01T06:36:45;96303.13;;;18.54;50.95
3960;BME280;1994;48.640;8.894;2023-06-01T06:39:12;96305.38;;;18.66;48.55
3960;BME280;1994;48.640;8.894;2023-06-01T06:41:40;96305.38;;;18.89;49.20
3960;BME280;1994;48.640;8.894;2023-06-01T06:44:06;96301.03;;;18.80;49.97
3960;BME280;1994;48.640;8.894;2023-06-01T06:46:32;96307.53;;;19.06;49.17
3960;BME280;1994;48.640;8.894;2023-06-01T06:48:58;96298.75;;;19.15;48.87
3960;BME280;1994;48.640;8.894;2023-06-01T06:51:24;96305.25;;;19.23;47.28
3960;BME280;1994;48.640;8.894;2023-06-01T06:53:50;96307.66;;;19.38;46.87
3960;BME280;1994;48.640;8.894;2023-06-01T06:56:16;96310.22;;;19.43;49.55
3960;BME280;1994;48.640;8.894;2023-06-01T06:58:41;96305.81;;;19.57;49.30
3960;BME280;1994;48.640;8.894;2023-06-01T07:01:07;96306.44;;;19.67;46.82
3960;BME280;1994;48.640;8.894;2023-06-01T07:03:33;96312.91;;;19.75;48.34
3960;BME280;1994;48.640;8.894;2023-06-01T07:05:59;96302.59;;;19.78;47.77
3960;BME280;1994;48.640;8.894;2023-06-01T07:08:25;96307.66;;;19.75;48.09
3960;BME280;1994;48.640;8.894;2023-06-01T07:10:53;96307.91;;;19.92;47.94
3960;BME280;1994;48.640;8.894;2023-06-01T07:13:22;96307.19;;;20.05;48.56
3960;BME280;1994;48.640;8.894;2023-06-01T07:15:47;96314.28;;;20.23;47.69
3960;BME280;1994;48.640;8.894;2023-06-01T07:18:13;96304.97;;;20.44;47.43
3960;BME280;1994;48.640;8.894;2023-06-01T07:20:39;96308.06;;;20.46;47.39
3960;BME280;1994;48.640;8.894;2023-06-01T07:23:06;96306.72;;;20.48;46.66
3960;BME280;1994;48.640;8.894;2023-06-01T07:25:31;96311.22;;;20.48;47.57
3960;BME280;1994;48.640;8.894;2023-06-01T07:27:57;96307.13;;;20.69;47.36
3960;BME280;1994;48.640;8.894;2023-06-01T07:30:23;96305.59;;;20.95;47.07
3960;BME280;1994;48.640;8.894;2023-06-01T07:32:49;96317.31;;;20.89;46.40
3960;BME280;1994;48.640;8.894;2023-06-01T07:35:15;96313.75;;;20.80;46.35
3960;BME280;1994;48.640;8.894;2023-06-01T07:37:41;96309.97;;;20.99;46.17
3960;BME280;1994;48.640;8.894;2023-06-01T07:40:07;96315.31;;;21.21;45.77
3960;BME280;1994;48.640;8.894;2023-06-01T07:42:33;96313.81;;;21.42;47.55
3960;BME280;1994;48.640;8.894;2023-06-01T07:44:59;96306.47;;;21.53;46.99
3960;BME280;1994;48.640;8.894;2023-06-01T07:47:25;96305.88;;;21.56;46.06
3960;BME280;1994;48.640;8.894;2023-06-01T07:49:51;96315.06;;;21.45;46.74
3960;BME280;1994;48.640;8.894;2023-06-01T07:52:17;96305.75;;;21.61;47.30
3960;BME280;1994;48.640;8.894;2023-06-01T07:54:43;96312.03;;;21.87;46.62
3960;BME280;1994;48.640;8.894;2023-06-01T07:57:09;96308.75;;;22.03;46.03
3960;BME280;1994;48.640;8.894;2023-06-01T07:59:35;96311.81;;;21.97;45.49
3960;BME280;1994;48.640;8.894;2023-06-01T08:02:00;96311.19;;;21.78;46.39
3960;BME280;1994;48.640;8.894;2023-06-01T08:04:27;96305.56;;;21.93;46.89
3960;BME280;1994;48.640;8.894;2023-06-01T08:06:59;96317.19;;;22.14;46.28
3960;BME280;1994;48.640;8.894;2023-06-01T08:09:24;96316.88;;;22.37;46.22
3960;BME280;1994;48.640;8.894;2023-06-01T08:11:50;96311.59;;;22.68;45.26
3960;BME280;1994;48.640;8.894;2023-06-01T08:14:16;96309.84;;;22.94;44.22
3960;BME280;1994;48.640;8.894;2023-06-01T08:16:44;96312.03;;;23.09;44.41
3960;BME280;1994;48.640;8.894;2023-06-01T08:19:11;96301.56;;;23.26;44.28
3960;BME280;1994;48.640;8.894;2023-06-01T08:21:37;96306.53;;;23.53;42.26
3960;BME280;1994;48.640;8.894;2023-06-01T08:24:02;96300.94;;;23.80;43.11
3960;BME280;1994;48.640;8.894;2023-06-01T08:26:29;96300.63;;;24.07;43.18
3960;BME280;1994;48.640;8.894;2023-06-01T08:28:55;96305.28;;;24.27;41.67
3960;BME280;1994;48.640;8.894;2023-06-01T08:31:22;96296.88;;;24.25;42.34
3960;BME280;1994;48.640;8.894;2023-06-01T08:33:50;96297.75;;;24.63;41.69
3960;BME280;1994;48.640;8.894;2023-06-01T08:36:18;96306.44;;;24.55;40.93
3960;BME280;1994;48.640;8.894;2023-06-01T08:38:44;96298.19;;;24.65;41.48
3960;BME280;1994;48.640;8.894;2023-06-01T08:41:45;96296.38;;;24.86;41.89
3960;BME280;1994;48.640;8.894;2023-06-01T08:44:14;96293.09;;;25.18;40.22
3960;BME280;1994;48.640;8.894;2023-06-01T08:46:43;96303.25;;;25.45;39.91
3960;BME280;1994;48.640;8.894;2023-06-01T08:49:11;96304.03;;;25.66;39.62
3960;BME280;1994;48.640;8.894;2023-06-01T08:51:40;96304.41;;;25.76;38.91
3960;BME280;1994;48.640;8.894;2023-06-01T08:54:09;96301.31;;;25.95;37.53
3960;BME280;1994;48.640;8.894;2023-06-01T08:56:36;96300.91;;;26.05;38.42
3960;BME280;1994;48.640;8.894;2023-06-01T08:59:02;96307.41;;;25.95;39.10
3960;BME280;1994;48.640;8.894;2023-06-01T09:01:28;96303.53;;;25.93;39.06
3960;BME280;1994;48.640;8.894;2023-06-01T09:03:54;96294.75;;;26.25;39.14
3960;BME280;1994;48.640;8.894;2023-06-01T09:06:21;96302.53;;;26.30;38.61
3960;BME280;1994;48.640;8.894;2023-06-01T09:08:47;96295.59;;;26.05;37.95
3960;BME280;1994;48.640;8.894;2023-06-01T09:11:12;96306.78;;;26.43;37.14
3960;BME280;1994;48.640;8.894;2023-06-01T09:13:40;96297.03;;;26.47;37.67
3960;BME280;1994;48.640;8.894;2023-06-01T09:16:06;96297.41;;;26.25;38.27
3960;BME280;1994;48.640;8.894;2023-06-01T09:18:33;96301.00;;;26.41;37.11
3960;BME280;1994;48.640;8.894;2023-06-01T09:21:14;96294.66;;;26.66;38.04
3960;BME280;1994;48.640;8.894;2023-06-01T09:23:43;96305.06;;;26.71;36.24
3960;BME280;1994;48.640;8.894;2023-06-01T09:26:14;96298.66;;;26.72;37.78
3960;BME280;1994;48.640;8.894;2023-06-01T09:28:56;96299.47;;;26.52;37.13
3960;BME280;1994;48.640;8.894;2023-06-01T09:31:43;96299.19;;;26.65;37.78
3960;BME280;1994;48.640;8.894;2023-06-01T09:34:17;96287.78;;;26.89;36.18
3960;BME280;1994;48.640;8.894;2023-06-01T09:36:48;96291.88;;;26.98;36.65
3960;BME280;1994;48.640;8.894;2023-06-01T09:39:20;96295.59;;;27.18;36.45
3960;BME280;1994;48.640;8.894;2023-06-01T09:44:29;96287.53;;;27.54;35.14
3960;BME280;1994;48.640;8.894;2023-06-01T09:46:58;96278.44;;;27.55;34.88
3960;BME280;1994;48.640;8.894;2023-06-01T09:49:29;96278.84;;;27.69;35.28
3960;BME280;1994;48.640;8.894;2023-06-01T09:54:34;96282.53;;;27.92;36.62
3960;BME280;1994;48.640;8.894;2023-06-01T09:57:02;96273.50;;;27.81;35.08
3960;BME280;1994;48.640;8.894;2023-06-01T09:59:37;96267.75;;;27.67;35.48
3960;BME280;1994;48.640;8.894;2023-06-01T10:02:04;96267.34;;;27.92;34.35
3960;BME280;1994;48.640;8.894;2023-06-01T10:04:30;96268.13;;;27.93;33.94
3960;BME280;1994;48.640;8.894;2023-06-01T10:06:57;96258.34;;;27.97;34.16
3960;BME280;1994;48.640;8.894;2023-06-01T10:09:25;96270.31;;;27.63;34.80
3960;BME280;1994;48.640;8.894;2023-06-01T10:11:54;96264.47;;;27.58;35.44
3960;BME280;1994;48.640;8.894;2023-06-01T10:14:23;96262.94;;;27.45;36.20
3960;BME280;1994;48.640;8.894;2023-06-01T10:16:51;96261.41;;;26.96;36.14
3960;BME280;1994;48.640;8.894;2023-06-01T10:19:19;96254.22;;;27.32;36.18
3960;BME280;1994;48.640;8.894;2023-06-01T10:21:45;96263.53;;;27.66;35.16
3960;BME280;1994;48.640;8.894;2023-06-01T10:24:13;96254.72;;;27.50;34.89
3960;BME280;1994;48.640;8.894;2023-06-01T10:27:20;96258.34;;;27.18;35.17
3960;BME280;1994;48.640;8.894;2023-06-01T10:29:49;96256.25;;;26.99;34.23
3960;BME280;1994;48.640;8.894;2023-06-01T10:32:46;96253.91;;;26.98;34.91
3960;BME280;1994;48.640;8.894;2023-06-01T10:40:37;96249.00;;;27.36;34.09
3960;BME280;1994;48.640;8.894;2023-06-01T10:43:03;96246.19;;;27.72;32.76
3960;BME280;1994;48.640;8.894;2023-06-01T10:45:39;96244.88;;;27.78;33.08
3960;BME280;1994;48.640;8.894;2023-06-01T10:48:10;96250.53;;;27.37;32.66
3960;BME280;1994;48.640;8.894;2023-06-01T10:50:38;96245.63;;;27.51;32.57
3960;BME280;1994;48.640;8.894;2023-06-01T10:53:26;96247.19;;;27.52;32.77
3960;BME280;1994;48.640;8.894;2023-06-01T10:56:27;96243.31;;;27.77;32.87
3960;BME280;1994;48.640;8.894;2023-06-01T11:01:39;96248.81;;;26.81;33.20
3960;BME280;1994;48.640;8.894;2023-06-01T11:04:06;96243.94;;;26.95;32.35
3960;BME280;1994;48.640;8.894;2023-06-01T11:06:35;96239.34;;;27.43;32.12
3960;BME280;1994;48.640;8.894;2023-06-01T11:09:05;96232.66;;;27.49;33.09
3960;BME280;1994;48.640;8.894;2023-06-01T11:14:18;96229.16;;;27.61;33.04
3960;BME280;1994;48.640;8.894;2023-06-01T11:16:44;96238.44;;;27.39;32.55
3960;BME280;1994;48.640;8.894;2023-06-01T11:19:18;96228.22;;;27.53;32.61
3960;BME280;1994;48.640;8.894;2023-06-01T11:21:44;96235.31;;;27.89;31.59
3960;BME280;1994;48.640;8.894;2023-06-01T11:24:15;96225.50;;;27.65;30.22
3960;BME280;1994;48.640;8.894;2023-06-01T11:26:47;96221.94;;;28.01;31.46
3960;BME280;1994;48.640;8.894;2023-06-01T11:29:23;96233.25;;;28.41;32.29
3960;BME280;1994;48.640;8.894;2023-06-01T11:31:56;96230.88;;;28.24;31.73
3960;BME280;1994;48.640;8.894;2023-06-01T11:34:36;96223.91;;;28.04;31.73
3960;BME280;1994;48.640;8.894;2023-06-01T11:37:05;96223.09;;;27.88;31.42
3960;BME280;1994;48.640;8.894;2023-06-01T11:39:32;96212.94;;;27.78;31.14
3960;BME280;1994;48.640;8.894;2023-06-01T11:42:13;96213.00;;;28.09;30.84
3960;BME280;1994;48.640;8.894;2023-06-01T11:44:57;96213.06;;;28.40;29.86
3960;BME280;1994;48.640;8.894;2023-06-01T11:47:27;96210.44;;;28.59;30.54
3960;BME280;1994;48.640;8.894;2023-06-01T11:49:52;96203.22;;;28.75;29.15
3960;BME280;1994;48.640;8.894;2023-06-01T11:52:19;96197.34;;;28.85;29.68
3960;BME280;1994;48.640;8.894;2023-06-01T11:54:47;96191.47;;;28.95;30.93
3960;BME280;1994;48.640;8.894;2023-06-01T11:57:13;96206.63;;;28.91;30.70
3960;BME280;1994;48.640;8.894;2023-06-01T11:59:46;96206.19;;;29.04;29.87
3960;BME280;1994;48.640;8.894;2023-06-01T12:02:28;96207.16;;;29.31;29.12
3960;BME280;1994;48.640;8.894;2023-06-01T12:05:05;96199.69;;;29.40;29.14
3960;BME280;1994;48.640;8.894;2023-06-01T12:07:48;96198.97;;;29.24;28.65
3960;BME280;1994;48.640;8.894;2023-06-01T12:10:18;96197.00;;;29.02;31.21
3960;BME280;1994;48.640;8.894;2023-06-01T12:12:45;96193.94;;;28.69;30.49
3960;BME280;1994;48.640;8.894;2023-06-01T12:15:14;96185.34;;;28.44;30.81
3960;BME280;1994;48.640;8.894;2023-06-01T12:17:53;96187.91;;;29.22;30.28
3960;BME280;1994;48.640;8.894;2023-06-01T12:20:30;96188.66;;;28.88;29.83
3960;BME280;1994;48.640;8.894;2023-06-01T12:23:00;96187.38;;;29.16;29.63
3960;BME280;1994;48.640;8.894;2023-06-01T12:25:29;96185.53;;;29.36;28.57
3960;BME280;1994;48.640;8.894;2023-06-01T12:28:05;96181.53;;;29.45;29.06
3960;BME280;1994;48.640;8.894;2023-06-01T12:30:32;96183.97;;;29.35;29.14
3960;BME280;1994;48.640;8.894;2023-06-01T12:32:58;96177.22;;;29.79;29.12
3960;BME280;1994;48.640;8.894;2023-06-01T12:35:24;96173.69;;;29.94;28.74
3960;BME280;1994;48.640;8.894;2023-06-01T12:38:06;96172.59;;;29.76;27.66
3960;BME280;1994;48.640;8.894;2023-06-01T12:40:33;96175.88;;;29.88;29.14
3960;BME280;1994;48.640;8.894;2023-06-01T12:43:03;96175.81;;;29.85;28.78
3960;BME280;1994;48.640;8.894;2023-06-01T12:45:40;96178.50;;;29.66;28.76
3960;BME280;1994;48.640;8.894;2023-06-01T12:48:06;96176.00;;;29.54;28.68
3960;BME280;1994;48.640;8.894;2023-06-01T12:50:32;96172.19;;;29.55;28.87
3960;BME280;1994;48.640;8.894;2023-06-01T12:52:58;96171.84;;;28.53;29.89
3960;BME280;1994;48.640;8.894;2023-06-01T12:55:24;96159.28;;;28.69;30.07
3960;BME280;1994;48.640;8.894;2023-06-01T12:57:53;96162.00;;;28.88;29.19
3960;BME280;1994;48.640;8.894;2023-06-01T13:00:20;96157.72;;;29.56;28.96
3960;BME280;1994;48.640;8.894;2023-06-01T13:02:46;96159.69;;;29.59;28.68
3960;BME280;1994;48.640;8.894;2023-06-01T13:05:16;96154.06;;;29.64;28.58
3960;BME280;1994;48.640;8.894;2023-06-01T13:07:45;96156.97;;;29.02;29.81
3960;BME280;1994;48.640;8.894;2023-06-01T13:10:12;96155.66;;;29.30;29.46
3960;BME280;1994;48.640;8.894;2023-06-01T13:12:38;96152.44;;;29.59;28.48
3960;BME280;1994;48.640;8.894;2023-06-01T13:15:07;96157.53;;;29.87;27.04
3960;BME280;1994;48.640;8.894;2023-06-01T13:17:33;96146.88;;;29.11;28.58
3960;BME280;1994;48.640;8.894;2023-06-01T13:19:58;96148.28;;;29.05;29.58
3960;BME280;1994;48.640;8.894;2023-06-01T13:22:25;96151.13;;;29.69;27.94
3960;BME280;1994;48.640;8.894;2023-06-01T13:24:50;96147.69;;;29.91;27.34
3960;BME280;1994;48.640;8.894;2023-06-01T13:27:16;96143.78;;;29.85;27.82
3960;BME280;1994;48.640;8.894;2023-06-01T13:29:42;96133.81;;;29.44;27.58
3960;BME280;1994;48.640;8.894;2023-06-01T13:32:08;96142.81;;;28.98;28.87
3960;BME280;1994;48.640;8.894;2023-06-01T13:34:34;96139.97;;;29.86;26.90
3960;BME280;1994;48.640;8.894;2023-06-01T13:37:01;96127.50;;;30.16;27.35
3960;BME280;1994;48.640;8.894;2023-06-01T13:39:27;96132.38;;;30.59;25.69
3960;BME280;1994;48.640;8.894;2023-06-01T13:41:52;96125.41;;;30.77;25.26
3960;BME280;1994;48.640;8.894;2023-06-01T13:44:18;96126.72;;;30.64;26.16
3960;BME280;1994;48.640;8.894;2023-06-01T13:46:44;96125.09;;;30.56;25.93
3960;BME280;1994;48.640;8.894;2023-06-01T13:49:10;96117.66;;;30.68;25.37
3960;BME280;1994;48.640;8.894;2023-06-01T13:51:36;96119.31;;;30.54;26.04
3960;BME280;1994;48.640;8.894;2023-06-01T13:54:05;96123.44;;;31.00;25.85